sensor_id;sensor_type;location;lat;lon;timestamp;P1;durP1;ratioP1;P2;durP2;ratioP2
11245;SDS011;59870;50.106;8.580;2022-10-22T00:00:39;8.70;;;6.30;;
11245;SDS011;59870;50.106;8.580;2022-10-22T00:03:06;6.93;;;6.23;;
11245;SDS011;59870;50.106;8.580;2022-10-22T00:05:34;7.03;;;6.43;;
11245;SDS011;59870;50.106;8.580;2022-10-22T00:08:02;6.20;;;5.30;;
11245;SDS011;59870;50.106;8.580;2022-10-22T00:10:29;5.77;;;5.27;;
11245;SDS011;59870;50.106;8.580;2022-10-22T00:12:57;6.27;;;5.50;;
11245;SDS011;59870;50.106;8.580;2022-10-22T00:15:25;6.00;;;5.50;;
11245;SDS011;59870;50.106;8.580;2022-10-22T00:17:52;6.10;;;5.50;;
11245;SDS011;59870;50.106;8.580;2022-10-22T00:20:20;5.10;;;4.70;;
11245;SDS011;59870;50.106;8.580;2022-10-22T00:22:48;6.47;;;5.93;;
11245;SDS011;59870;50.106;8.580;2022-10-22T00:25:19;6.13;;;5.63;;
11245;SDS011;59870;50.106;8.580;2022-10-22T00:27:46;7.53;;;5.60;;
11245;SDS011;59870;50.106;8.580;2022-10-22T00:30:14;6.07;;;5.60;;
11245;SDS011;59870;50.106;8.580;2022-10-22T00:32:41;6.30;;;5.70;;
11245;SDS011;59870;50.106;8.580;2022-10-22T00:35:09;6.40;;;5.73;;
11245;SDS011;59870;50.106;8.580;2022-10-22T00:37:37;6.20;;;5.30;;
11245;SDS011;59870;50.106;8.580;2022-10-22T00:40:05;6.27;;;4.90;;
11245;SDS011;59870;50.106;8.580;2022-10-22T00:42:33;5.17;;;4.63;;
11245;SDS011;59870;50.106;8.580;2022-10-22T00:47:41;5.67;;;5.03;;
11245;SDS011;59870;50.106;8.580;2022-10-22T00:50:16;7.63;;;5.27;;
11245;SDS011;59870;50.106;8.580;2022-10-22T00:52:51;5.43;;;5.03;;
11245;SDS011;59870;50.106;8.580;2022-10-22T00:55:19;6.10;;;5.70;;
11245;SDS011;59870;50.106;8.580;2022-10-22T00:57:48;5.40;;;5.00;;
11245;SDS011;59870;50.106;8.580;2022-10-22T01:00:17;6.00;;;5.43;;
11245;SDS011;59870;50.106;8.580;2022-10-22T01:02:45;6.23;;;5.77;;
11245;SDS011;59870;50.106;8.580;2022-10-22T01:05:15;5.10;;;4.77;;
11245;SDS011;59870;50.106;8.580;2022-10-22T01:07:44;5.57;;;5.17;;
11245;SDS011;59870;50.106;8.580;2022-10-22T01:15:52;5.80;;;5.30;;
11245;SDS011;59870;50.106;8.580;2022-10-22T01:18:44;5.50;;;5.10;;
11245;SDS011;59870;50.106;8.580;2022-10-22T01:26:35;5.90;;;5.43;;
11245;SDS011;59870;50.106;8.580;2022-10-22T01:29:26;5.87;;;5.30;;
11245;SDS011;59870;50.106;8.580;2022-10-22T01:32:13;5.53;;;5.13;;
11245;SDS011;59870;50.106;8.580;2022-10-22T01:34:44;6.97;;;6.30;;
11245;SDS011;59870;50.106;8.580;2022-10-22T01:37:15;6.37;;;5.77;;
11245;SDS011;59870;50.106;8.580;2022-10-22T01:39:45;5.93;;;5.43;;
11245;SDS011;59870;50.106;8.580;2022-10-22T01:42:14;6.10;;;5.50;;
11245;SDS011;59870;50.106;8.580;2022-10-22T01:44:41;5.27;;;4.93;;
11245;SDS011;59870;50.106;8.580;2022-10-22T01:47:30;5.70;;;5.30;;
11245;SDS011;59870;50.106;8.580;2022-10-22T01:50:14;8.03;;;5.83;;
11245;SDS011;59870;50.106;8.580;2022-10-22T01:53:17;6.67;;;5.30;;
11245;SDS011;59870;50.106;8.580;2022-10-22T01:58:40;6.63;;;6.13;;
11245;SDS011;59870;50.106;8.580;2022-10-22T02:07:17;6.10;;;5.60;;
11245;SDS011;59870;50.106;8.580;2022-10-22T02:09:49;7.27;;;6.37;;
11245;SDS011;59870;50.106;8.580;2022-10-22T02:12:19;5.80;;;5.23;;
11245;SDS011;59870;50.106;8.580;2022-10-22T02:14:48;5.10;;;4.60;;
11245;SDS011;59870;50.106;8.580;2022-10-22T02:17:19;7.23;;;5.83;;
11245;SDS011;59870;50.106;8.580;2022-10-22T02:22:29;5.53;;;5.00;;
11245;SDS011;59870;50.106;8.580;2022-10-22T02:24:56;6.63;;;6.03;;
11245;SDS011;59870;50.106;8.580;2022-10-22T02:27:26;5.57;;;5.17;;
11245;SDS011;59870;50.106;8.580;2022-10-22T02:35:12;5.30;;;4.80;;
11245;SDS011;59870;50.106;8.580;2022-10-22T02:37:43;5.30;;;5.00;;
11245;SDS011;59870;50.106;8.580;2022-10-22T02:40:11;4.90;;;4.50;;
11245;SDS011;59870;50.106;8.580;2022-10-22T02:42:39;5.07;;;4.67;;
11245;SDS011;59870;50.106;8.580;2022-10-22T02:45:09;5.03;;;4.73;;
11245;SDS011;59870;50.106;8.580;2022-10-22T02:47:36;5.47;;;4.97;;
11245;SDS011;59870;50.106;8.580;2022-10-22T02:50:04;5.17;;;4.87;;
11245;SDS011;59870;50.106;8.580;2022-10-22T02:52:36;5.30;;;4.90;;
11245;SDS011;59870;50.106;8.580;2022-10-22T02:55:05;4.90;;;4.60;;
11245;SDS011;59870;50.106;8.580;2022-10-22T02:57:33;4.33;;;4.13;;
11245;SDS011;59870;50.106;8.580;2022-10-22T03:00:00;4.70;;;4.40;;
11245;SDS011;59870;50.106;8.580;2022-10-22T03:02:28;4.50;;;4.20;;
11245;SDS011;59870;50.106;8.580;2022-10-22T03:04:55;5.40;;;4.50;;
11245;SDS011;59870;50.106;8.580;2022-10-22T03:07:23;5.07;;;4.67;;
11245;SDS011;59870;50.106;8.580;2022-10-22T03:09:51;4.87;;;4.20;;
11245;SDS011;59870;50.106;8.580;2022-10-22T03:12:19;5.00;;;4.70;;
11245;SDS011;59870;50.106;8.580;2022-10-22T03:14:46;5.03;;;3.80;;
11245;SDS011;59870;50.106;8.580;2022-10-22T03:17:13;5.03;;;4.53;;
11245;SDS011;59870;50.106;8.580;2022-10-22T03:19:41;5.10;;;4.60;;
11245;SDS011;59870;50.106;8.580;2022-10-22T03:22:11;5.53;;;4.57;;
11245;SDS011;59870;50.106;8.580;2022-10-22T03:24:43;6.70;;;5.03;;
11245;SDS011;59870;50.106;8.580;2022-10-22T03:27:12;7.43;;;4.37;;
11245;SDS011;59870;50.106;8.580;2022-10-22T03:29:53;4.97;;;4.50;;
11245;SDS011;59870;50.106;8.580;2022-10-22T03:32:22;4.73;;;4.33;;
11245;SDS011;59870;50.106;8.580;2022-10-22T03:34:49;3.93;;;3.73;;
11245;SDS011;59870;50.106;8.580;2022-10-22T03:37:17;4.70;;;4.40;;
11245;SDS011;59870;50.106;8.580;2022-10-22T03:39:45;4.20;;;3.90;;
11245;SDS011;59870;50.106;8.580;2022-10-22T03:42:12;4.07;;;3.87;;
11245;SDS011;59870;50.106;8.580;2022-10-22T03:44:40;4.47;;;4.27;;
11245;SDS011;59870;50.106;8.580;2022-10-22T03:47:08;4.47;;;4.17;;
11245;SDS011;59870;50.106;8.580;2022-10-22T03:49:35;4.70;;;4.30;;
11245;SDS011;59870;50.106;8.580;2022-10-22T03:52:07;3.97;;;3.60;;
11245;SDS011;59870;50.106;8.580;2022-10-22T03:54:36;6.00;;;4.00;;
11245;SDS011;59870;50.106;8.580;2022-10-22T03:57:04;4.20;;;3.83;;
11245;SDS011;59870;50.106;8.580;2022-10-22T03:59:36;4.27;;;3.97;;
11245;SDS011;59870;50.106;8.580;2022-10-22T04:02:07;4.40;;;4.10;;
11245;SDS011;59870;50.106;8.580;2022-10-22T04:04:36;3.90;;;3.60;;
11245;SDS011;59870;50.106;8.580;2022-10-22T04:07:04;4.37;;;4.07;;
11245;SDS011;59870;50.106;8.580;2022-10-22T04:09:32;3.40;;;3.30;;
11245;SDS011;59870;50.106;8.580;2022-10-22T04:12:00;4.17;;;3.80;;
11245;SDS011;59870;50.106;8.580;2022-10-22T04:14:28;4.43;;;3.70;;
11245;SDS011;59870;50.106;8.580;2022-10-22T04:16:55;4.87;;;3.70;;
11245;SDS011;59870;50.106;8.580;2022-10-22T04:19:22;5.37;;;3.63;;
11245;SDS011;59870;50.106;8.580;2022-10-22T04:21:50;4.30;;;3.90;;
11245;SDS011;59870;50.106;8.580;2022-10-22T04:24:18;5.83;;;3.43;;
11245;SDS011;59870;50.106;8.580;2022-10-22T04:26:45;3.80;;;3.50;;
11245;SDS011;59870;50.106;8.580;2022-10-22T04:29:12;4.70;;;3.67;;
11245;SDS011;59870;50.106;8.580;2022-10-22T04:31:42;3.47;;;3.17;;
11245;SDS011;59870;50.106;8.580;2022-10-22T04:34:10;3.93;;;3.73;;
11245;SDS011;59870;50.106;8.580;2022-10-22T04:36:37;4.13;;;3.93;;
11245;SDS011;59870;50.106;8.580;2022-10-22T04:39:05;7.47;;;3.80;;
11245;SDS011;59870;50.106;8.580;2022-10-22T04:41:37;3.63;;;3.50;;
11245;SDS011;59870;50.106;8.580;2022-10-22T04:44:05;3.87;;;3.47;;
11245;SDS011;59870;50.106;8.580;2022-10-22T04:46:41;3.60;;;3.40;;
11245;SDS011;59870;50.106;8.580;2022-10-22T04:49:09;3.80;;;3.50;;
11245;SDS011;59870;50.106;8.580;2022-10-22T04:51:39;4.10;;;3.70;;
11245;SDS011;59870;50.106;8.580;2022-10-22T04:54:06;5.23;;;4.27;;
11245;SDS011;59870;50.106;8.580;2022-10-22T04:56:35;5.63;;;3.50;;
11245;SDS011;59870;50.106;8.580;2022-10-22T04:59:03;4.13;;;3.73;;
11245;SDS011;59870;50.106;8.580;2022-10-22T05:01:33;3.40;;;3.20;;
11245;SDS011;59870;50.106;8.580;2022-10-22T05:04:10;4.03;;;3.60;;
11245;SDS011;59870;50.106;8.580;2022-10-22T05:06:39;4.63;;;3.57;;
11245;SDS011;59870;50.106;8.580;2022-10-22T05:09:09;3.13;;;2.93;;
11245;SDS011;59870;50.106;8.580;2022-10-22T05:11:40;3.40;;;3.20;;
11245;SDS011;59870;50.106;8.580;2022-10-22T05:14:11;3.23;;;2.93;;
11245;SDS011;59870;50.106;8.580;2022-10-22T05:16:38;3.17;;;2.93;;
11245;SDS011;59870;50.106;8.580;2022-10-22T05:19:06;3.70;;;3.13;;
11245;SDS011;59870;50.106;8.580;2022-10-22T05:21:34;3.03;;;2.83;;
11245;SDS011;59870;50.106;8.580;2022-10-22T05:24:03;3.07;;;2.87;;
11245;SDS011;59870;50.106;8.580;2022-10-22T05:26:31;3.07;;;2.87;;
11245;SDS011;59870;50.106;8.580;2022-10-22T05:28:59;4.10;;;2.90;;
11245;SDS011;59870;50.106;8.580;2022-10-22T05:31:26;3.00;;;2.83;;
11245;SDS011;59870;50.106;8.580;2022-10-22T05:33:54;5.43;;;2.83;;
11245;SDS011;59870;50.106;8.580;2022-10-22T05:36:22;3.20;;;3.10;;
11245;SDS011;59870;50.106;8.580;2022-10-22T05:38:49;3.13;;;2.93;;
11245;SDS011;59870;50.106;8.580;2022-10-22T05:41:18;2.93;;;2.73;;
11245;SDS011;59870;50.106;8.580;2022-10-22T05:43:47;3.30;;;3.10;;
11245;SDS011;59870;50.106;8.580;2022-10-22T05:46:16;3.07;;;2.87;;
11245;SDS011;59870;50.106;8.580;2022-10-22T05:48:53;2.83;;;2.73;;
11245;SDS011;59870;50.106;8.580;2022-10-22T05:51:21;2.90;;;2.80;;
11245;SDS011;59870;50.106;8.580;2022-10-22T05:53:53;3.00;;;2.90;;
11245;SDS011;59870;50.106;8.580;2022-10-22T05:56:25;3.50;;;3.20;;
11245;SDS011;59870;50.106;8.580;2022-10-22T05:58:56;2.90;;;2.80;;
11245;SDS011;59870;50.106;8.580;2022-10-22T06:01:26;3.77;;;3.27;;
11245;SDS011;59870;50.106;8.580;2022-10-22T06:03:55;3.90;;;3.70;;
11245;SDS011;59870;50.106;8.580;2022-10-22T06:06:32;3.73;;;3.43;;
11245;SDS011;59870;50.106;8.580;2022-10-22T06:09:08;4.20;;;3.90;;
11245;SDS011;59870;50.106;8.580;2022-10-22T06:11:54;3.40;;;3.20;;
11245;SDS011;59870;50.106;8.580;2022-10-22T06:14:22;4.20;;;3.80;;
11245;SDS011;59870;50.106;8.580;2022-10-22T06:16:50;4.60;;;3.80;;
11245;SDS011;59870;50.106;8.580;2022-10-22T06:19:19;3.27;;;3.10;;
11245;SDS011;59870;50.106;8.580;2022-10-22T06:21:52;3.50;;;3.30;;
11245;SDS011;59870;50.106;8.580;2022-10-22T06:24:22;3.87;;;3.50;;
11245;SDS011;59870;50.106;8.580;2022-10-22T06:26:50;3.77;;;3.47;;
11245;SDS011;59870;50.106;8.580;2022-10-22T06:29:18;3.30;;;3.10;;
11245;SDS011;59870;50.106;8.580;2022-10-22T06:31:45;3.73;;;3.53;;
11245;SDS011;59870;50.106;8.580;2022-10-22T06:34:13;4.10;;;3.70;;
11245;SDS011;59870;50.106;8.580;2022-10-22T06:36:42;3.87;;;3.67;;
11245;SDS011;59870;50.106;8.580;2022-10-22T06:39:11;4.20;;;3.80;;
11245;SDS011;59870;50.106;8.580;2022-10-22T06:41:39;4.00;;;3.70;;
11245;SDS011;59870;50.106;8.580;2022-10-22T06:44:09;3.73;;;3.40;;
11245;SDS011;59870;50.106;8.580;2022-10-22T06:46:42;3.70;;;3.50;;
11245;SDS011;59870;50.106;8.580;2022-10-22T06:49:13;4.27;;;3.47;;
11245;SDS011;59870;50.106;8.580;2022-10-22T06:51:41;3.83;;;3.57;;
11245;SDS011;59870;50.106;8.580;2022-10-22T06:54:10;3.07;;;2.87;;
11245;SDS011;59870;50.106;8.580;2022-10-22T06:56:37;4.87;;;3.93;;
11245;SDS011;59870;50.106;8.580;2022-10-22T06:59:05;4.03;;;3.93;;
11245;SDS011;59870;50.106;8.580;2022-10-22T07:01:33;4.17;;;3.97;;
11245;SDS011;59870;50.106;8.580;2022-10-22T07:04:02;4.17;;;3.80;;
11245;SDS011;59870;50.106;8.580;2022-10-22T07:06:30;3.73;;;3.43;;
11245;SDS011;59870;50.106;8.580;2022-10-22T07:08:59;4.13;;;3.80;;
11245;SDS011;59870;50.106;8.580;2022-10-22T07:11:28;3.70;;;3.60;;
11245;SDS011;59870;50.106;8.580;2022-10-22T07:13:58;6.83;;;3.83;;
11245;SDS011;59870;50.106;8.580;2022-10-22T07:16:26;4.80;;;4.13;;
11245;SDS011;59870;50.106;8.580;2022-10-22T07:18:58;4.40;;;4.00;;
11245;SDS011;59870;50.106;8.580;2022-10-22T07:21:26;6.67;;;3.80;;
11245;SDS011;59870;50.106;8.580;2022-10-22T07:23:54;4.03;;;3.73;;
11245;SDS011;59870;50.106;8.580;2022-10-22T07:26:22;4.37;;;4.07;;
11245;SDS011;59870;50.106;8.580;2022-10-22T07:28:52;4.97;;;4.57;;
11245;SDS011;59870;50.106;8.580;2022-10-22T07:31:21;4.23;;;3.87;;
11245;SDS011;59870;50.106;8.580;2022-10-22T07:33:49;4.30;;;3.87;;
11245;SDS011;59870;50.106;8.580;2022-10-22T07:36:17;3.60;;;3.40;;
11245;SDS011;59870;50.106;8.580;2022-10-22T07:38:45;6.50;;;3.73;;
11245;SDS011;59870;50.106;8.580;2022-10-22T07:41:15;4.17;;;3.97;;
11245;SDS011;59870;50.106;8.580;2022-10-22T07:43:43;3.93;;;3.57;;
11245;SDS011;59870;50.106;8.580;2022-10-22T07:46:11;3.77;;;3.47;;
11245;SDS011;59870;50.106;8.580;2022-10-22T07:48:38;4.20;;;3.77;;
11245;SDS011;59870;50.106;8.580;2022-10-22T07:51:06;4.07;;;3.87;;
11245;SDS011;59870;50.106;8.580;2022-10-22T07:53:34;3.80;;;3.53;;
11245;SDS011;59870;50.106;8.580;2022-10-22T07:56:02;4.07;;;3.87;;
11245;SDS011;59870;50.106;8.580;2022-10-22T07:58:30;4.33;;;4.07;;
11245;SDS011;59870;50.106;8.580;2022-10-22T08:00:58;5.87;;;5.37;;
11245;SDS011;59870;50.106;8.580;2022-10-22T08:03:28;4.40;;;4.10;;
11245;SDS011;59870;50.106;8.580;2022-10-22T08:05:55;4.90;;;4.47;;
11245;SDS011;59870;50.106;8.580;2022-10-22T08:08:23;5.30;;;4.90;;
11245;SDS011;59870;50.106;8.580;2022-10-22T08:10:57;3.60;;;3.40;;
11245;SDS011;59870;50.106;8.580;2022-10-22T08:13:27;4.47;;;4.20;;
11245;SDS011;59870;50.106;8.580;2022-10-22T08:15:58;3.83;;;3.63;;
11245;SDS011;59870;50.106;8.580;2022-10-22T08:18:26;4.20;;;3.80;;
11245;SDS011;59870;50.106;8.580;2022-10-22T08:20:55;4.30;;;4.10;;
11245;SDS011;59870;50.106;8.580;2022-10-22T08:23:23;5.23;;;4.87;;
11245;SDS011;59870;50.106;8.580;2022-10-22T08:25:54;4.77;;;4.50;;
11245;SDS011;59870;50.106;8.580;2022-10-22T08:28:23;4.83;;;4.47;;
11245;SDS011;59870;50.106;8.580;2022-10-22T08:30:51;4.70;;;4.30;;
11245;SDS011;59870;50.106;8.580;2022-10-22T08:33:18;4.97;;;4.57;;
11245;SDS011;59870;50.106;8.580;2022-10-22T08:35:46;5.17;;;4.97;;
11245;SDS011;59870;50.106;8.580;2022-10-22T08:38:18;5.77;;;5.00;;
11245;SDS011;59870;50.106;8.580;2022-10-22T08:40:47;4.63;;;4.43;;
11245;SDS011;59870;50.106;8.580;2022-10-22T08:46:18;6.80;;;6.37;;
11245;SDS011;59870;50.106;8.580;2022-10-22T08:49:00;5.80;;;5.50;;
11245;SDS011;59870;50.106;8.580;2022-10-22T08:51:35;5.63;;;5.43;;
11245;SDS011;59870;50.106;8.580;2022-10-22T08:56:58;5.83;;;5.63;;
11245;SDS011;59870;50.106;8.580;2022-10-22T09:08:24;5.73;;;5.40;;
11245;SDS011;59870;50.106;8.580;2022-10-22T09:10:57;5.43;;;5.13;;
11245;SDS011;59870;50.106;8.580;2022-10-22T09:13:31;5.00;;;4.80;;
11245;SDS011;59870;50.106;8.580;2022-10-22T09:16:00;5.27;;;5.07;;
11245;SDS011;59870;50.106;8.580;2022-10-22T09:21:23;5.00;;;4.80;;
11245;SDS011;59870;50.106;8.580;2022-10-22T09:26:59;5.37;;;4.93;;
11245;SDS011;59870;50.106;8.580;2022-10-22T09:29:30;11.30;;;5.17;;
11245;SDS011;59870;50.106;8.580;2022-10-22T09:31:59;4.20;;;4.00;;
11245;SDS011;59870;50.106;8.580;2022-10-22T09:34:27;4.33;;;4.10;;
11245;SDS011;59870;50.106;8.580;2022-10-22T09:37:01;5.20;;;4.90;;
11245;SDS011;59870;50.106;8.580;2022-10-22T09:39:42;4.93;;;4.50;;
11245;SDS011;59870;50.106;8.580;2022-10-22T09:42:15;4.53;;;4.40;;
11245;SDS011;59870;50.106;8.580;2022-10-22T09:44:44;4.50;;;4.27;;
11245;SDS011;59870;50.106;8.580;2022-10-22T09:47:39;4.50;;;4.10;;
11245;SDS011;59870;50.106;8.580;2022-10-22T09:50:37;4.60;;;4.30;;
11245;SDS011;59870;50.106;8.580;2022-10-22T09:55:49;3.63;;;3.33;;
11245;SDS011;59870;50.106;8.580;2022-10-22T09:58:18;4.20;;;4.00;;
11245;SDS011;59870;50.106;8.580;2022-10-22T10:00:50;4.23;;;3.93;;
11245;SDS011;59870;50.106;8.580;2022-10-22T10:03:26;4.07;;;3.87;;
11245;SDS011;59870;50.106;8.580;2022-10-22T10:05:56;4.40;;;4.20;;
11245;SDS011;59870;50.106;8.580;2022-10-22T10:08:31;4.37;;;4.17;;
11245;SDS011;59870;50.106;8.580;2022-10-22T10:13:37;4.10;;;3.90;;
11245;SDS011;59870;50.106;8.580;2022-10-22T10:25:34;3.93;;;3.73;;
11245;SDS011;59870;50.106;8.580;2022-10-22T10:28:41;3.70;;;3.40;;
11245;SDS011;59870;50.106;8.580;2022-10-22T10:30:53;3.60;;;3.50;;
11245;SDS011;59870;50.106;8.580;2022-10-22T10:36:55;3.70;;;3.50;;
11245;SDS011;59870;50.106;8.580;2022-10-22T10:42:29;8.83;;;3.33;;
11245;SDS011;59870;50.106;8.580;2022-10-22T10:47:55;3.60;;;3.40;;
11245;SDS011;59870;50.106;8.580;2022-10-22T10:50:33;3.57;;;3.40;;
11245;SDS011;59870;50.106;8.580;2022-10-22T10:56:24;4.23;;;3.83;;
11245;SDS011;59870;50.106;8.580;2022-10-22T11:05:01;4.37;;;3.33;;
11245;SDS011;59870;50.106;8.580;2022-10-22T11:07:36;3.77;;;3.47;;
11245;SDS011;59870;50.106;8.580;2022-10-22T11:12:44;3.53;;;3.33;;
11245;SDS011;59870;50.106;8.580;2022-10-22T11:18:11;4.07;;;3.60;;
11245;SDS011;59870;50.106;8.580;2022-10-22T11:20:47;3.57;;;3.27;;
11245;SDS011;59870;50.106;8.580;2022-10-22T11:23:32;3.53;;;3.33;;
11245;SDS011;59870;50.106;8.580;2022-10-22T11:26:06;3.87;;;3.63;;
11245;SDS011;59870;50.106;8.580;2022-10-22T11:28:42;3.90;;;3.70;;
11245;SDS011;59870;50.106;8.580;2022-10-22T11:31:16;3.93;;;3.73;;
11245;SDS011;59870;50.106;8.580;2022-10-22T11:33:47;4.27;;;3.90;;
11245;SDS011;59870;50.106;8.580;2022-10-22T11:36:41;4.37;;;4.17;;
11245;SDS011;59870;50.106;8.580;2022-10-22T11:39:28;4.03;;;3.73;;
11245;SDS011;59870;50.106;8.580;2022-10-22T11:42:10;5.37;;;4.90;;
11245;SDS011;59870;50.106;8.580;2022-10-22T11:44:45;3.40;;;3.10;;
11245;SDS011;59870;50.106;8.580;2022-10-22T11:47:16;3.10;;;2.90;;
11245;SDS011;59870;50.106;8.580;2022-10-22T11:49:57;3.03;;;2.83;;
11245;SDS011;59870;50.106;8.580;2022-10-22T11:55:02;3.23;;;2.70;;
11245;SDS011;59870;50.106;8.580;2022-10-22T11:58:31;3.83;;;3.43;;
11245;SDS011;59870;50.106;8.580;2022-10-22T12:06:25;3.50;;;3.20;;
11245;SDS011;59870;50.106;8.580;2022-10-22T12:11:40;3.53;;;3.27;;
11245;SDS011;59870;50.106;8.580;2022-10-22T12:14:16;3.40;;;3.17;;
11245;SDS011;59870;50.106;8.580;2022-10-22T12:16:57;3.37;;;3.17;;
11245;SDS011;59870;50.106;8.580;2022-10-22T12:19:50;3.20;;;2.90;;
11245;SDS011;59870;50.106;8.580;2022-10-22T12:26:28;3.63;;;3.40;;
11245;SDS011;59870;50.106;8.580;2022-10-22T12:34:21;3.73;;;3.43;;
11245;SDS011;59870;50.106;8.580;2022-10-22T12:41:00;3.60;;;3.30;;
11245;SDS011;59870;50.106;8.580;2022-10-22T12:43:32;3.27;;;2.80;;
11245;SDS011;59870;50.106;8.580;2022-10-22T12:46:08;3.73;;;3.50;;
11245;SDS011;59870;50.106;8.580;2022-10-22T12:48:40;3.63;;;3.33;;
11245;SDS011;59870;50.106;8.580;2022-10-22T12:51:13;3.97;;;3.10;;
11245;SDS011;59870;50.106;8.580;2022-10-22T12:56:35;3.70;;;3.43;;
11245;SDS011;59870;50.106;8.580;2022-10-22T12:59:17;4.07;;;3.60;;
11245;SDS011;59870;50.106;8.580;2022-10-22T13:02:21;4.03;;;3.73;;
11245;SDS011;59870;50.106;8.580;2022-10-22T13:05:06;3.80;;;3.60;;
11245;SDS011;59870;50.106;8.580;2022-10-22T13:08:03;4.70;;;3.40;;
11245;SDS011;59870;50.106;8.580;2022-10-22T13:10:39;3.33;;;3.03;;
11245;SDS011;59870;50.106;8.580;2022-10-22T13:13:27;3.40;;;3.20;;
11245;SDS011;59870;50.106;8.580;2022-10-22T13:15:56;3.47;;;3.03;;
11245;SDS011;59870;50.106;8.580;2022-10-22T13:18:59;4.13;;;3.50;;
11245;SDS011;59870;50.106;8.580;2022-10-22T13:24:21;9.20;;;3.77;;
11245;SDS011;59870;50.106;8.580;2022-10-22T13:26:53;3.50;;;3.30;;
11245;SDS011;59870;50.106;8.580;2022-10-22T13:29:21;3.63;;;2.90;;
11245;SDS011;59870;50.106;8.580;2022-10-22T13:31:50;3.50;;;3.30;;
11245;SDS011;59870;50.106;8.580;2022-10-22T13:34:20;4.30;;;4.00;;
11245;SDS011;59870;50.106;8.580;2022-10-22T13:36:50;7.80;;;3.73;;
11245;SDS011;59870;50.106;8.580;2022-10-22T13:39:19;6.10;;;4.20;;
11245;SDS011;59870;50.106;8.580;2022-10-22T13:41:48;4.47;;;3.90;;
11245;SDS011;59870;50.106;8.580;2022-10-22T13:44:16;4.83;;;4.17;;
11245;SDS011;59870;50.106;8.580;2022-10-22T13:46:45;4.50;;;4.10;;
11245;SDS011;59870;50.106;8.580;2022-10-22T13:49:15;4.53;;;3.67;;
11245;SDS011;59870;50.106;8.580;2022-10-22T13:51:44;3.90;;;3.60;;
11245;SDS011;59870;50.106;8.580;2022-10-22T13:54:21;5.40;;;3.97;;
11245;SDS011;59870;50.106;8.580;2022-10-22T13:56:53;4.00;;;3.70;;
11245;SDS011;59870;50.106;8.580;2022-10-22T13:59:20;6.70;;;3.90;;
11245;SDS011;59870;50.106;8.580;2022-10-22T14:01:49;4.83;;;3.27;;
11245;SDS011;59870;50.106;8.580;2022-10-22T14:04:18;3.77;;;3.47;;
11245;SDS011;59870;50.106;8.580;2022-10-22T14:06:45;3.87;;;3.57;;
11245;SDS011;59870;50.106;8.580;2022-10-22T14:09:13;4.10;;;3.80;;
11245;SDS011;59870;50.106;8.580;2022-10-22T14:11:41;4.23;;;3.77;;
11245;SDS011;59870;50.106;8.580;2022-10-22T14:14:09;5.73;;;4.00;;
11245;SDS011;59870;50.106;8.580;2022-10-22T14:16:40;5.60;;;4.47;;
11245;SDS011;59870;50.106;8.580;2022-10-22T14:19:09;3.70;;;3.50;;
11245;SDS011;59870;50.106;8.580;2022-10-22T14:21:42;4.27;;;3.87;;
11245;SDS011;59870;50.106;8.580;2022-10-22T14:24:09;5.47;;;3.40;;
11245;SDS011;59870;50.106;8.580;2022-10-22T14:26:39;4.30;;;3.70;;
11245;SDS011;59870;50.106;8.580;2022-10-22T14:29:06;3.97;;;3.63;;
11245;SDS011;59870;50.106;8.580;2022-10-22T14:31:37;6.00;;;4.20;;
11245;SDS011;59870;50.106;8.580;2022-10-22T14:34:12;6.70;;;4.73;;
11245;SDS011;59870;50.106;8.580;2022-10-22T14:36:41;6.90;;;4.30;;
11245;SDS011;59870;50.106;8.580;2022-10-22T14:39:12;6.13;;;5.23;;
11245;SDS011;59870;50.106;8.580;2022-10-22T14:41:40;5.00;;;4.53;;
11245;SDS011;59870;50.106;8.580;2022-10-22T14:44:10;5.10;;;4.43;;
11245;SDS011;59870;50.106;8.580;2022-10-22T14:46:39;6.90;;;4.90;;
11245;SDS011;59870;50.106;8.580;2022-10-22T14:49:09;6.77;;;4.40;;
11245;SDS011;59870;50.106;8.580;2022-10-22T14:51:38;7.97;;;5.77;;
11245;SDS011;59870;50.106;8.580;2022-10-22T14:54:07;5.00;;;4.10;;
11245;SDS011;59870;50.106;8.580;2022-10-22T14:56:34;7.23;;;6.73;;
11245;SDS011;59870;50.106;8.580;2022-10-22T14:59:04;5.27;;;4.87;;
11245;SDS011;59870;50.106;8.580;2022-10-22T15:01:32;5.90;;;5.37;;
11245;SDS011;59870;50.106;8.580;2022-10-22T15:06:54;4.67;;;4.20;;
11245;SDS011;59870;50.106;8.580;2022-10-22T15:09:22;4.10;;;3.67;;
11245;SDS011;59870;50.106;8.580;2022-10-22T15:11:57;3.80;;;3.50;;
11245;SDS011;59870;50.106;8.580;2022-10-22T15:14:25;4.90;;;3.90;;
11245;SDS011;59870;50.106;8.580;2022-10-22T15:16:56;4.27;;;3.90;;
11245;SDS011;59870;50.106;8.580;2022-10-22T15:19:25;4.97;;;3.53;;
11245;SDS011;59870;50.106;8.580;2022-10-22T15:21:52;3.90;;;3.60;;
11245;SDS011;59870;50.106;8.580;2022-10-22T15:24:23;6.40;;;3.80;;
11245;SDS011;59870;50.106;8.580;2022-10-22T15:26:52;4.70;;;4.30;;
11245;SDS011;59870;50.106;8.580;2022-10-22T15:29:20;5.17;;;4.23;;
11245;SDS011;59870;50.106;8.580;2022-10-22T15:31:49;5.47;;;4.97;;
11245;SDS011;59870;50.106;8.580;2022-10-22T15:34:25;5.10;;;4.60;;
11245;SDS011;59870;50.106;8.580;2022-10-22T15:36:55;4.40;;;4.20;;
11245;SDS011;59870;50.106;8.580;2022-10-22T15:39:24;5.43;;;4.73;;
11245;SDS011;59870;50.106;8.580;2022-10-22T15:41:53;4.70;;;4.30;;
11245;SDS011;59870;50.106;8.580;2022-10-22T15:44:26;4.63;;;4.23;;
11245;SDS011;59870;50.106;8.580;2022-10-22T15:46:56;11.93;;;6.33;;
11245;SDS011;59870;50.106;8.580;2022-10-22T15:49:25;6.13;;;4.57;;
11245;SDS011;59870;50.106;8.580;2022-10-22T15:51:57;5.37;;;4.83;;
11245;SDS011;59870;50.106;8.580;2022-10-22T15:54:26;15.30;;;8.37;;
11245;SDS011;59870;50.106;8.580;2022-10-22T15:56:56;6.00;;;4.43;;
11245;SDS011;59870;50.106;8.580;2022-10-22T15:59:37;18.13;;;11.07;;
11245;SDS011;59870;50.106;8.580;2022-10-22T16:02:22;7.10;;;4.60;;
11245;SDS011;59870;50.106;8.580;2022-10-22T16:04:51;6.63;;;4.30;;
11245;SDS011;59870;50.106;8.580;2022-10-22T16:07:29;5.23;;;4.73;;
11245;SDS011;59870;50.106;8.580;2022-10-22T16:10:18;4.57;;;4.17;;
11245;SDS011;59870;50.106;8.580;2022-10-22T16:17:47;5.73;;;4.20;;
11245;SDS011;59870;50.106;8.580;2022-10-22T16:20:43;6.17;;;4.53;;
11245;SDS011;59870;50.106;8.580;2022-10-22T16:23:35;4.70;;;4.23;;
11245;SDS011;59870;50.106;8.580;2022-10-22T16:26:08;5.20;;;4.50;;
11245;SDS011;59870;50.106;8.580;2022-10-22T16:28:54;4.17;;;3.83;;
11245;SDS011;59870;50.106;8.580;2022-10-22T16:31:28;4.87;;;4.13;;
11245;SDS011;59870;50.106;8.580;2022-10-22T16:33:57;4.77;;;4.20;;
11245;SDS011;59870;50.106;8.580;2022-10-22T16:36:31;4.37;;;3.83;;
11245;SDS011;59870;50.106;8.580;2022-10-22T16:38:59;5.40;;;4.30;;
11245;SDS011;59870;50.106;8.580;2022-10-22T16:41:26;8.43;;;4.33;;
11245;SDS011;59870;50.106;8.580;2022-10-22T16:44:01;4.20;;;3.80;;
11245;SDS011;59870;50.106;8.580;2022-10-22T16:46:31;5.50;;;4.20;;
11245;SDS011;59870;50.106;8.580;2022-10-22T16:48:59;4.23;;;3.93;;
11245;SDS011;59870;50.106;8.580;2022-10-22T16:51:27;4.67;;;4.27;;
11245;SDS011;59870;50.106;8.580;2022-10-22T16:53:57;4.37;;;4.07;;
11245;SDS011;59870;50.106;8.580;2022-10-22T16:56:24;4.63;;;4.23;;
11245;SDS011;59870;50.106;8.580;2022-10-22T16:58:53;5.67;;;4.93;;
11245;SDS011;59870;50.106;8.580;2022-10-22T17:01:23;7.50;;;4.23;;
11245;SDS011;59870;50.106;8.580;2022-10-22T17:03:52;13.97;;;4.80;;
11245;SDS011;59870;50.106;8.580;2022-10-22T17:06:23;10.00;;;5.63;;
11245;SDS011;59870;50.106;8.580;2022-10-22T17:08:51;8.37;;;6.33;;
11245;SDS011;59870;50.106;8.580;2022-10-22T17:11:20;13.23;;;9.20;;
11245;SDS011;59870;50.106;8.580;2022-10-22T17:13:50;10.37;;;8.83;;
11245;SDS011;59870;50.106;8.580;2022-10-22T17:16:22;8.73;;;7.20;;
11245;SDS011;59870;50.106;8.580;2022-10-22T17:18:54;7.00;;;6.50;;
11245;SDS011;59870;50.106;8.580;2022-10-22T17:21:24;9.80;;;7.50;;